sensor_id;sensor_type;location;lat;lon;timestamp;P1;durP1;ratioP1;P2;durP2;ratioP2
32637;SDS011;19045;52.268;10.506;2023-05-10T00:01:20;9.00;;;4.32;;
32637;SDS011;19045;52.268;10.506;2023-05-10T00:03:47;7.75;;;4.57;;
32637;SDS011;19045;52.268;10.506;2023-05-10T00:06:13;8.77;;;4.38;;
32637;SDS011;19045;52.268;10.506;2023-05-10T00:08:40;7.88;;;4.32;;
32637;SDS011;19045;52.268;10.506;2023-05-10T00:11:07;7.65;;;4.20;;
32637;SDS011;19045;52.268;10.506;2023-05-10T00:13:33;10.75;;;4.43;;
32637;SDS011;19045;52.268;10.506;2023-05-10T00:16:01;8.82;;;4.70;;
32637;SDS011;19045;52.268;10.506;2023-05-10T00:18:28;6.35;;;3.97;;
32637;SDS011;19045;52.268;10.506;2023-05-10T00:20:54;6.10;;;4.50;;
32637;SDS011;19045;52.268;10.506;2023-05-10T00:23:21;8.15;;;4.35;;
32637;SDS011;19045;52.268;10.506;2023-05-10T00:25:47;6.13;;;4.50;;
32637;SDS011;19045;52.268;10.506;2023-05-10T00:28:14;5.95;;;4.25;;
32637;SDS011;19045;52.268;10.506;2023-05-10T00:30:41;8.45;;;4.13;;
32637;SDS011;19045;52.268;10.506;2023-05-10T00:33:09;9.07;;;4.07;;
32637;SDS011;19045;52.268;10.506;2023-05-10T00:35:36;10.43;;;5.22;;
32637;SDS011;19045;52.268;10.506;2023-05-10T00:38:03;5.53;;;4.72;;
32637;SDS011;19045;52.268;10.506;2023-05-10T00:40:29;7.82;;;4.07;;
32637;SDS011;19045;52.268;10.506;2023-05-10T00:42:56;8.55;;;4.50;;
32637;SDS011;19045;52.268;10.506;2023-05-10T00:45:24;6.88;;;4.03;;
32637;SDS011;19045;52.268;10.506;2023-05-10T00:47:51;8.15;;;4.53;;
32637;SDS011;19045;52.268;10.506;2023-05-10T00:50:21;7.07;;;4.50;;
32637;SDS011;19045;52.268;10.506;2023-05-10T00:52:48;5.93;;;4.47;;
32637;SDS011;19045;52.268;10.506;2023-05-10T00:55:16;4.97;;;4.03;;
32637;SDS011;19045;52.268;10.506;2023-05-10T00:57:43;8.85;;;4.75;;
32637;SDS011;19045;52.268;10.506;2023-05-10T01:00:11;9.40;;;4.50;;
32637;SDS011;19045;52.268;10.506;2023-05-10T01:02:42;9.13;;;4.30;;
32637;SDS011;19045;52.268;10.506;2023-05-10T01:05:09;8.68;;;5.35;;
32637;SDS011;19045;52.268;10.506;2023-05-10T01:07:37;7.15;;;4.25;;
32637;SDS011;19045;52.268;10.506;2023-05-10T01:10:04;7.07;;;4.03;;
32637;SDS011;19045;52.268;10.506;2023-05-10T01:12:32;6.78;;;4.45;;
32637;SDS011;19045;52.268;10.506;2023-05-10T01:14:59;6.95;;;4.90;;
32637;SDS011;19045;52.268;10.506;2023-05-10T01:17:27;5.20;;;4.38;;
32637;SDS011;19045;52.268;10.506;2023-05-10T01:19:54;10.10;;;4.63;;
32637;SDS011;19045;52.268;10.506;2023-05-10T01:22:39;8.52;;;4.57;;
32637;SDS011;19045;52.268;10.506;2023-05-10T01:25:44;9.00;;;4.43;;
32637;SDS011;19045;52.268;10.506;2023-05-10T01:28:32;8.95;;;4.15;;
32637;SDS011;19045;52.268;10.506;2023-05-10T01:31:22;8.80;;;4.65;;
32637;SDS011;19045;52.268;10.506;2023-05-10T01:34:07;8.27;;;4.38;;
32637;SDS011;19045;52.268;10.506;2023-05-10T01:36:40;7.00;;;4.30;;
32637;SDS011;19045;52.268;10.506;2023-05-10T01:39:12;7.05;;;4.07;;
32637;SDS011;19045;52.268;10.506;2023-05-10T01:41:45;11.55;;;4.80;;
32637;SDS011;19045;52.268;10.506;2023-05-10T01:44:16;8.00;;;4.43;;
32637;SDS011;19045;52.268;10.506;2023-05-10T01:46:48;9.95;;;4.72;;
32637;SDS011;19045;52.268;10.506;2023-05-10T01:49:22;7.95;;;4.85;;
32637;SDS011;19045;52.268;10.506;2023-05-10T01:51:52;5.60;;;4.13;;
32637;SDS011;19045;52.268;10.506;2023-05-10T01:54:21;8.38;;;5.18;;
32637;SDS011;19045;52.268;10.506;2023-05-10T01:56:52;13.50;;;4.53;;
32637;SDS011;19045;52.268;10.506;2023-05-10T01:59:27;7.47;;;4.85;;
32637;SDS011;19045;52.268;10.506;2023-05-10T02:01:56;9.70;;;4.63;;
32637;SDS011;19045;52.268;10.506;2023-05-10T02:04:26;8.68;;;4.68;;
32637;SDS011;19045;52.268;10.506;2023-05-10T02:06:54;11.57;;;4.47;;
32637;SDS011;19045;52.268;10.506;2023-05-10T02:09:22;6.93;;;4.00;;
32637;SDS011;19045;52.268;10.506;2023-05-10T02:11:51;6.60;;;4.00;;
32637;SDS011;19045;52.268;10.506;2023-05-10T02:14:19;7.03;;;4.88;;
32637;SDS011;19045;52.268;10.506;2023-05-10T02:16:49;8.68;;;5.07;;
32637;SDS011;19045;52.268;10.506;2023-05-10T02:19:17;7.75;;;4.80;;
32637;SDS011;19045;52.268;10.506;2023-05-10T02:21:47;10.43;;;4.93;;
32637;SDS011;19045;52.268;10.506;2023-05-10T02:24:17;6.72;;;4.95;;
32637;SDS011;19045;52.268;10.506;2023-05-10T02:26:44;6.10;;;4.57;;
32637;SDS011;19045;52.268;10.506;2023-05-10T02:29:13;6.90;;;4.30;;
32637;SDS011;19045;52.268;10.506;2023-05-10T02:31:40;6.45;;;4.40;;
32637;SDS011;19045;52.268;10.506;2023-05-10T02:34:08;6.47;;;4.43;;
32637;SDS011;19045;52.268;10.506;2023-05-10T02:36:37;8.75;;;4.80;;
32637;SDS011;19045;52.268;10.506;2023-05-10T02:39:07;12.77;;;4.90;;
32637;SDS011;19045;52.268;10.506;2023-05-10T02:41:37;6.90;;;4.60;;
32637;SDS011;19045;52.268;10.506;2023-05-10T02:44:06;6.68;;;4.22;;
32637;SDS011;19045;52.268;10.506;2023-05-10T02:46:34;6.45;;;4.50;;
32637;SDS011;19045;52.268;10.506;2023-05-10T02:49:01;12.32;;;5.57;;
32637;SDS011;19045;52.268;10.506;2023-05-10T02:51:30;9.20;;;5.28;;
32637;SDS011;19045;52.268;10.506;2023-05-10T02:53:59;12.30;;;5.00;;
32637;SDS011;19045;52.268;10.506;2023-05-10T02:56:34;7.65;;;4.85;;
32637;SDS011;19045;52.268;10.506;2023-05-10T02:59:04;8.43;;;4.95;;
32637;SDS011;19045;52.268;10.506;2023-05-10T03:01:31;9.02;;;5.60;;
32637;SDS011;19045;52.268;10.506;2023-05-10T03:03:58;11.20;;;5.43;;
32637;SDS011;19045;52.268;10.506;2023-05-10T03:06:24;7.47;;;4.85;;
32637;SDS011;19045;52.268;10.506;2023-05-10T03:08:51;7.40;;;4.82;;
32637;SDS011;19045;52.268;10.506;2023-05-10T03:11:28;6.03;;;4.78;;
32637;SDS011;19045;52.268;10.506;2023-05-10T03:14:10;10.38;;;4.72;;
32637;SDS011;19045;52.268;10.506;2023-05-10T03:16:56;5.78;;;4.05;;
32637;SDS011;19045;52.268;10.506;2023-05-10T03:19:27;8.85;;;5.05;;
32637;SDS011;19045;52.268;10.506;2023-05-10T03:22:03;7.53;;;4.75;;
32637;SDS011;19045;52.268;10.506;2023-05-10T03:24:35;6.10;;;4.63;;
32637;SDS011;19045;52.268;10.506;2023-05-10T03:27:02;8.77;;;5.22;;
32637;SDS011;19045;52.268;10.506;2023-05-10T03:29:31;10.13;;;5.10;;
32637;SDS011;19045;52.268;10.506;2023-05-10T03:31:59;9.27;;;5.35;;
32637;SDS011;19045;52.268;10.506;2023-05-10T03:34:26;8.15;;;4.80;;
32637;SDS011;19045;52.268;10.506;2023-05-10T03:36:52;7.80;;;5.28;;
32637;SDS011;19045;52.268;10.506;2023-05-10T03:39:19;8.05;;;5.38;;
32637;SDS011;19045;52.268;10.506;2023-05-10T03:41:46;9.88;;;5.38;;
32637;SDS011;19045;52.268;10.506;2023-05-10T03:44:12;8.10;;;5.18;;
32637;SDS011;19045;52.268;10.506;2023-05-10T03:46:40;11.77;;;5.82;;
32637;SDS011;19045;52.268;10.506;2023-05-10T03:49:07;7.55;;;5.03;;
32637;SDS011;19045;52.268;10.506;2023-05-10T03:51:34;7.15;;;5.40;;
32637;SDS011;19045;52.268;10.506;2023-05-10T03:54:00;11.43;;;5.65;;
32637;SDS011;19045;52.268;10.506;2023-05-10T03:56:27;7.75;;;5.05;;
32637;SDS011;19045;52.268;10.506;2023-05-10T03:58:53;10.00;;;4.90;;
32637;SDS011;19045;52.268;10.506;2023-05-10T04:01:20;10.02;;;5.60;;
32637;SDS011;19045;52.268;10.506;2023-05-10T04:03:48;7.20;;;5.00;;
32637;SDS011;19045;52.268;10.506;2023-05-10T04:06:14;8.07;;;4.68;;
32637;SDS011;19045;52.268;10.506;2023-05-10T04:08:41;5.55;;;4.75;;
32637;SDS011;19045;52.268;10.506;2023-05-10T04:11:08;6.50;;;5.03;;
32637;SDS011;19045;52.268;10.506;2023-05-10T04:13:35;13.35;;;5.25;;
32637;SDS011;19045;52.268;10.506;2023-05-10T04:16:03;7.10;;;5.05;;
32637;SDS011;19045;52.268;10.506;2023-05-10T04:18:33;8.80;;;4.95;;
32637;SDS011;19045;52.268;10.506;2023-05-10T04:21:01;13.32;;;5.70;;
32637;SDS011;19045;52.268;10.506;2023-05-10T04:23:27;8.10;;;5.05;;
32637;SDS011;19045;52.268;10.506;2023-05-10T04:25:58;7.57;;;5.47;;
32637;SDS011;19045;52.268;10.506;2023-05-10T04:28:26;5.40;;;4.53;;
32637;SDS011;19045;52.268;10.506;2023-05-10T04:30:52;7.15;;;5.22;;
32637;SDS011;19045;52.268;10.506;2023-05-10T04:33:19;9.27;;;5.45;;
32637;SDS011;19045;52.268;10.506;2023-05-10T04:35:46;8.38;;;5.47;;
32637;SDS011;19045;52.268;10.506;2023-05-10T04:38:14;10.23;;;5.30;;
32637;SDS011;19045;52.268;10.506;2023-05-10T04:40:41;8.40;;;5.55;;
32637;SDS011;19045;52.268;10.506;2023-05-10T04:43:07;8.93;;;4.95;;
32637;SDS011;19045;52.268;10.506;2023-05-10T04:45:34;10.52;;;5.93;;
32637;SDS011;19045;52.268;10.506;2023-05-10T04:48:02;10.93;;;5.30;;
32637;SDS011;19045;52.268;10.506;2023-05-10T04:50:30;6.90;;;5.15;;
32637;SDS011;19045;52.268;10.506;2023-05-10T04:52:57;9.43;;;5.35;;
32637;SDS011;19045;52.268;10.506;2023-05-10T04:55:25;9.43;;;5.65;;
32637;SDS011;19045;52.268;10.506;2023-05-10T04:57:51;12.82;;;5.95;;
32637;SDS011;19045;52.268;10.506;2023-05-10T05:00:20;7.70;;;5.32;;
32637;SDS011;19045;52.268;10.506;2023-05-10T05:02:47;9.10;;;5.55;;
32637;SDS011;19045;52.268;10.506;2023-05-10T05:05:13;8.13;;;5.80;;
32637;SDS011;19045;52.268;10.506;2023-05-10T05:07:40;13.77;;;5.72;;
32637;SDS011;19045;52.268;10.506;2023-05-10T05:10:07;9.88;;;6.10;;
32637;SDS011;19045;52.268;10.506;2023-05-10T05:12:36;12.07;;;6.22;;
32637;SDS011;19045;52.268;10.506;2023-05-10T05:15:02;10.98;;;5.82;;
32637;SDS011;19045;52.268;10.506;2023-05-10T05:17:29;12.85;;;5.63;;
32637;SDS011;19045;52.268;10.506;2023-05-10T05:19:56;7.95;;;5.28;;
32637;SDS011;19045;52.268;10.506;2023-05-10T05:22:23;12.05;;;6.15;;
32637;SDS011;19045;52.268;10.506;2023-05-10T05:24:52;9.00;;;5.43;;
32637;SDS011;19045;52.268;10.506;2023-05-10T05:27:19;7.35;;;5.93;;
32637;SDS011;19045;52.268;10.506;2023-05-10T05:29:48;6.93;;;5.65;;
32637;SDS011;19045;52.268;10.506;2023-05-10T05:32:15;9.88;;;6.47;;
32637;SDS011;19045;52.268;10.506;2023-05-10T05:34:41;8.68;;;5.80;;
32637;SDS011;19045;52.268;10.506;2023-05-10T05:37:12;11.80;;;6.45;;
32637;SDS011;19045;52.268;10.506;2023-05-10T05:39:39;8.52;;;5.85;;
32637;SDS011;19045;52.268;10.506;2023-05-10T05:42:06;8.48;;;5.65;;
32637;SDS011;19045;52.268;10.506;2023-05-10T05:44:32;9.27;;;6.22;;
32637;SDS011;19045;52.268;10.506;2023-05-10T05:47:00;8.43;;;6.10;;
32637;SDS011;19045;52.268;10.506;2023-05-10T05:49:27;9.55;;;6.22;;
32637;SDS011;19045;52.268;10.506;2023-05-10T05:51:53;7.65;;;6.10;;
32637;SDS011;19045;52.268;10.506;2023-05-10T05:54:20;11.25;;;6.32;;
32637;SDS011;19045;52.268;10.506;2023-05-10T05:56:47;9.90;;;6.13;;
32637;SDS011;19045;52.268;10.506;2023-05-10T05:59:13;8.75;;;5.90;;
32637;SDS011;19045;52.268;10.506;2023-05-10T06:01:40;15.07;;;6.28;;
32637;SDS011;19045;52.268;10.506;2023-05-10T06:04:08;14.25;;;6.47;;
32637;SDS011;19045;52.268;10.506;2023-05-10T06:06:34;9.00;;;6.60;;
32637;SDS011;19045;52.268;10.506;2023-05-10T06:09:01;12.55;;;6.63;;
32637;SDS011;19045;52.268;10.506;2023-05-10T06:11:27;8.55;;;5.97;;
32637;SDS011;19045;52.268;10.506;2023-05-10T06:13:55;7.35;;;5.93;;
32637;SDS011;19045;52.268;10.506;2023-05-10T06:16:22;10.27;;;6.25;;
32637;SDS011;19045;52.268;10.506;2023-05-10T06:18:49;8.05;;;5.93;;
32637;SDS011;19045;52.268;10.506;2023-05-10T06:21:17;8.90;;;6.50;;
32637;SDS011;19045;52.268;10.506;2023-05-10T06:23:44;10.10;;;5.93;;
32637;SDS011;19045;52.268;10.506;2023-05-10T06:26:10;9.07;;;6.45;;
32637;SDS011;19045;52.268;10.506;2023-05-10T06:28:38;9.45;;;6.65;;
32637;SDS011;19045;52.268;10.506;2023-05-10T06:31:06;9.00;;;6.07;;
32637;SDS011;19045;52.268;10.506;2023-05-10T06:33:33;9.20;;;6.72;;
32637;SDS011;19045;52.268;10.506;2023-05-10T06:35:59;9.25;;;6.60;;
32637;SDS011;19045;52.268;10.506;2023-05-10T06:38:28;9.40;;;6.45;;
32637;SDS011;19045;52.268;10.506;2023-05-10T06:40:54;9.55;;;6.53;;
32637;SDS011;19045;52.268;10.506;2023-05-10T06:43:22;10.18;;;7.00;;
32637;SDS011;19045;52.268;10.506;2023-05-10T06:45:49;11.32;;;7.15;;
32637;SDS011;19045;52.268;10.506;2023-05-10T06:48:16;11.60;;;7.47;;
32637;SDS011;19045;52.268;10.506;2023-05-10T06:50:43;10.32;;;8.02;;
32637;SDS011;19045;52.268;10.506;2023-05-10T06:53:10;10.63;;;7.70;;
32637;SDS011;19045;52.268;10.506;2023-05-10T06:55:39;13.48;;;8.40;;
32637;SDS011;19045;52.268;10.506;2023-05-10T06:58:06;11.63;;;8.15;;
32637;SDS011;19045;52.268;10.506;2023-05-10T07:00:32;14.65;;;8.48;;
32637;SDS011;19045;52.268;10.506;2023-05-10T07:02:59;11.32;;;8.10;;
32637;SDS011;19045;52.268;10.506;2023-05-10T07:05:26;10.82;;;8.93;;
32637;SDS011;19045;52.268;10.506;2023-05-10T07:07:54;10.68;;;8.88;;
32637;SDS011;19045;52.268;10.506;2023-05-10T07:10:21;11.38;;;8.70;;
32637;SDS011;19045;52.268;10.506;2023-05-10T07:12:49;10.75;;;7.90;;
32637;SDS011;19045;52.268;10.506;2023-05-10T07:15:15;10.75;;;8.10;;
32637;SDS011;19045;52.268;10.506;2023-05-10T07:17:42;10.50;;;8.20;;
32637;SDS011;19045;52.268;10.506;2023-05-10T07:20:09;10.85;;;8.52;;
32637;SDS011;19045;52.268;10.506;2023-05-10T07:22:36;11.77;;;8.30;;
32637;SDS011;19045;52.268;10.506;2023-05-10T07:25:03;9.68;;;7.85;;
32637;SDS011;19045;52.268;10.506;2023-05-10T07:27:30;12.68;;;7.75;;
32637;SDS011;19045;52.268;10.506;2023-05-10T07:29:58;10.65;;;8.60;;
32637;SDS011;19045;52.268;10.506;2023-05-10T07:32:28;13.52;;;9.35;;
32637;SDS011;19045;52.268;10.506;2023-05-10T07:34:55;9.90;;;8.25;;
32637;SDS011;19045;52.268;10.506;2023-05-10T07:37:22;12.00;;;8.80;;
32637;SDS011;19045;52.268;10.506;2023-05-10T07:39:48;11.20;;;8.52;;
32637;SDS011;19045;52.268;10.506;2023-05-10T07:42:15;14.88;;;9.00;;
32637;SDS011;19045;52.268;10.506;2023-05-10T07:44:41;14.02;;;9.38;;
32637;SDS011;19045;52.268;10.506;2023-05-10T07:47:09;12.30;;;8.45;;
32637;SDS011;19045;52.268;10.506;2023-05-10T07:49:36;12.43;;;8.65;;
32637;SDS011;19045;52.268;10.506;2023-05-10T07:52:03;12.02;;;9.27;;
32637;SDS011;19045;52.268;10.506;2023-05-10T07:54:30;11.93;;;8.82;;
32637;SDS011;19045;52.268;10.506;2023-05-10T07:56:56;11.50;;;9.10;;
32637;SDS011;19045;52.268;10.506;2023-05-10T07:59:24;15.98;;;9.68;;
32637;SDS011;19045;52.268;10.506;2023-05-10T08:01:51;11.98;;;8.15;;
32637;SDS011;19045;52.268;10.506;2023-05-10T08:04:19;12.25;;;9.40;;
32637;SDS011;19045;52.268;10.506;2023-05-10T08:06:46;12.60;;;9.30;;
32637;SDS011;19045;52.268;10.506;2023-05-10T08:09:12;10.68;;;8.70;;
32637;SDS011;19045;52.268;10.506;2023-05-10T08:11:39;11.88;;;9.23;;
32637;SDS011;19045;52.268;10.506;2023-05-10T08:14:06;12.45;;;8.63;;
32637;SDS011;19045;52.268;10.506;2023-05-10T08:16:32;14.93;;;9.45;;
32637;SDS011;19045;52.268;10.506;2023-05-10T08:18:59;17.35;;;9.88;;
32637;SDS011;19045;52.268;10.506;2023-05-10T08:21:27;13.82;;;9.13;;
32637;SDS011;19045;52.268;10.506;2023-05-10T08:23:54;14.50;;;9.45;;
32637;SDS011;19045;52.268;10.506;2023-05-10T08:26:20;14.02;;;8.57;;
32637;SDS011;19045;52.268;10.506;2023-05-10T08:28:47;10.23;;;8.93;;
32637;SDS011;19045;52.268;10.506;2023-05-10T08:31:14;13.60;;;9.77;;
32637;SDS011;19045;52.268;10.506;2023-05-10T08:33:41;13.80;;;8.75;;
32637;SDS011;19045;52.268;10.506;2023-05-10T08:36:08;14.52;;;9.23;;
32637;SDS011;19045;52.268;10.506;2023-05-10T08:38:36;14.40;;;10.15;;
32637;SDS011;19045;52.268;10.506;2023-05-10T08:41:03;12.35;;;9.82;;
32637;SDS011;19045;52.268;10.506;2023-05-10T08:43:31;15.90;;;10.38;;
32637;SDS011;19045;52.268;10.506;2023-05-10T08:45:59;14.48;;;9.57;;
32637;SDS011;19045;52.268;10.506;2023-05-10T08:48:28;15.18;;;10.30;;
32637;SDS011;19045;52.268;10.506;2023-05-10T08:50:55;15.27;;;10.13;;
32637;SDS011;19045;52.268;10.506;2023-05-10T08:53:25;13.02;;;9.75;;
32637;SDS011;19045;52.268;10.506;2023-05-10T08:55:54;17.63;;;10.27;;
32637;SDS011;19045;52.268;10.506;2023-05-10T08:58:21;13.40;;;10.13;;
32637;SDS011;19045;52.268;10.506;2023-05-10T09:00:48;15.40;;;9.80;;
32637;SDS011;19045;52.268;10.506;2023-05-10T09:03:16;13.73;;;9.93;;
32637;SDS011;19045;52.268;10.506;2023-05-10T09:05:43;13.20;;;9.77;;
32637;SDS011;19045;52.268;10.506;2023-05-10T09:08:10;12.63;;;9.65;;
32637;SDS011;19045;52.268;10.506;2023-05-10T09:10:38;15.60;;;10.65;;
32637;SDS011;19045;52.268;10.506;2023-05-10T09:13:07;15.60;;;9.93;;
32637;SDS011;19045;52.268;10.506;2023-05-10T09:15:36;13.75;;;10.30;;
32637;SDS011;19045;52.268;10.506;2023-05-10T09:18:03;11.85;;;10.13;;
32637;SDS011;19045;52.268;10.506;2023-05-10T09:20:29;11.05;;;9.68;;
32637;SDS011;19045;52.268;10.506;2023-05-10T09:22:56;16.25;;;9.93;;
32637;SDS011;19045;52.268;10.506;2023-05-10T09:25:23;16.58;;;10.10;;
32637;SDS011;19045;52.268;10.506;2023-05-10T09:27:49;15.02;;;9.32;;
32637;SDS011;19045;52.268;10.506;2023-05-10T09:30:23;12.15;;;10.10;;
32637;SDS011;19045;52.268;10.506;2023-05-10T09:32:51;11.95;;;9.65;;
32637;SDS011;19045;52.268;10.506;2023-05-10T09:35:19;13.65;;;10.30;;
32637;SDS011;19045;52.268;10.506;2023-05-10T09:37:47;15.27;;;10.07;;
32637;SDS011;19045;52.268;10.506;2023-05-10T09:40:17;13.35;;;10.43;;
32637;SDS011;19045;52.268;10.506;2023-05-10T09:42:50;15.45;;;10.95;;
32637;SDS011;19045;52.268;10.506;2023-05-10T09:45:20;16.63;;;10.05;;
32637;SDS011;19045;52.268;10.506;2023-05-10T09:47:47;12.60;;;10.15;;
32637;SDS011;19045;52.268;10.506;2023-05-10T09:50:14;11.82;;;9.00;;
32637;SDS011;19045;52.268;10.506;2023-05-10T09:52:47;11.40;;;9.05;;
32637;SDS011;19045;52.268;10.506;2023-05-10T09:55:15;9.52;;;7.20;;
32637;SDS011;19045;52.268;10.506;2023-05-10T09:57:42;11.05;;;6.75;;
32637;SDS011;19045;52.268;10.506;2023-05-10T10:00:09;4.00;;;2.85;;
32637;SDS011;19045;52.268;10.506;2023-05-10T10:02:42;5.03;;;2.35;;
32637;SDS011;19045;52.268;10.506;2023-05-10T10:05:12;2.75;;;2.22;;
32637;SDS011;19045;52.268;10.506;2023-05-10T10:07:39;2.13;;;1.73;;
32637;SDS011;19045;52.268;10.506;2023-05-10T10:10:07;2.20;;;1.52;;
32637;SDS011;19045;52.268;10.506;2023-05-10T10:12:37;1.50;;;1.40;;
32637;SDS011;19045;52.268;10.506;2023-05-10T10:15:05;2.70;;;1.85;;
32637;SDS011;19045;52.268;10.506;2023-05-10T10:17:33;2.50;;;1.60;;
32637;SDS011;19045;52.268;10.506;2023-05-10T10:20:04;4.82;;;1.50;;
32637;SDS011;19045;52.268;10.506;2023-05-10T10:22:32;1.27;;;1.15;;
32637;SDS011;19045;52.268;10.506;2023-05-10T10:24:59;2.08;;;1.23;;
32637;SDS011;19045;52.268;10.506;2023-05-10T10:27:27;1.38;;;0.90;;
32637;SDS011;19045;52.268;10.506;2023-05-10T10:30:02;1.95;;;0.85;;
32637;SDS011;19045;52.268;10.506;2023-05-10T10:32:42;2.03;;;0.98;;
32637;SDS011;19045;52.268;10.506;2023-05-10T10:35:29;1.60;;;0.88;;
32637;SDS011;19045;52.268;10.506;2023-05-10T10:37:57;3.17;;;1.00;;
32637;SDS011;19045;52.268;10.506;2023-05-10T10:40:24;1.85;;;0.90;;
32637;SDS011;19045;52.268;10.506;2023-05-10T10:42:52;2.22;;;1.08;;
32637;SDS011;19045;52.268;10.506;2023-05-10T10:45:19;2.95;;;0.90;;
32637;SDS011;19045;52.268;10.506;2023-05-10T10:47:47;1.90;;;0.68;;
32637;SDS011;19045;52.268;10.506;2023-05-10T10:50:14;1.10;;;1.00;;
32637;SDS011;19045;52.268;10.506;2023-05-10T10:52:43;5.38;;;1.10;;
32637;SDS011;19045;52.268;10.506;2023-05-10T10:55:11;1.17;;;1.00;;
32637;SDS011;19045;52.268;10.506;2023-05-10T10:57:42;2.15;;;1.15;;
32637;SDS011;19045;52.268;10.506;2023-05-10T11:00:24;1.88;;;1.33;;
32637;SDS011;19045;52.268;10.506;2023-05-10T11:02:53;1.20;;;1.10;;
32637;SDS011;19045;52.268;10.506;2023-05-10T11:05:27;2.80;;;1.17;;
32637;SDS011;19045;52.268;10.506;2023-05-10T11:08:06;4.15;;;1.20;;
32637;SDS011;19045;52.268;10.506;2023-05-10T11:10:34;1.30;;;1.00;;
32637;SDS011;19045;52.268;10.506;2023-05-10T11:13:01;1.00;;;0.80;;
32637;SDS011;19045;52.268;10.506;2023-05-10T11:15:30;0.82;;;0.82;;
32637;SDS011;19045;52.268;10.506;2023-05-10T11:17:57;1.88;;;1.00;;
32637;SDS011;19045;52.268;10.506;2023-05-10T11:20:27;1.55;;;1.20;;
32637;SDS011;19045;52.268;10.506;2023-05-10T11:22:59;1.58;;;1.15;;
32637;SDS011;19045;52.268;10.506;2023-05-10T11:25:41;2.42;;;1.27;;
32637;SDS011;19045;52.268;10.506;2023-05-10T11:28:09;3.90;;;1.48;;
32637;SDS011;19045;52.268;10.506;2023-05-10T11:30:35;1.40;;;1.13;;
32637;SDS011;19045;52.268;10.506;2023-05-10T11:33:02;1.73;;;1.20;;
32637;SDS011;19045;52.268;10.506;2023-05-10T11:35:29;1.98;;;1.77;;
32637;SDS011;19045;52.268;10.506;2023-05-10T11:37:56;7.28;;;5.63;;
32637;SDS011;19045;52.268;10.506;2023-05-10T11:43:26;4.65;;;1.65;;
32637;SDS011;19045;52.268;10.506;2023-05-10T11:45:55;3.47;;;1.38;;
32637;SDS011;19045;52.268;10.506;2023-05-10T11:48:22;1.55;;;1.00;;
32637;SDS011;19045;52.268;10.506;2023-05-10T11:50:49;1.98;;;0.80;;
32637;SDS011;19045;52.268;10.506;2023-05-10T11:53:15;0.98;;;0.70;;
32637;SDS011;19045;52.268;10.506;2023-05-10T11:55:42;1.00;;;0.70;;
32637;SDS011;19045;52.268;10.506;2023-05-10T11:58:11;2.30;;;1.02;;
32637;SDS011;19045;52.268;10.506;2023-05-10T12:00:38;2.13;;;1.02;;
32637;SDS011;19045;52.268;10.506;2023-05-10T12:03:04;1.50;;;0.70;;
32637;SDS011;19045;52.268;10.506;2023-05-10T12:05:32;1.52;;;0.90;;
32637;SDS011;19045;52.268;10.506;2023-05-10T12:08:12;1.02;;;0.90;;
32637;SDS011;19045;52.268;10.506;2023-05-10T12:10:40;1.02;;;0.65;;
32637;SDS011;19045;52.268;10.506;2023-05-10T12:13:16;1.80;;;1.00;;
32637;SDS011;19045;52.268;10.506;2023-05-10T12:15:52;1.88;;;1.00;;
32637;SDS011;19045;52.268;10.506;2023-05-10T12:18:22;2.70;;;0.88;;
32637;SDS011;19045;52.268;10.506;2023-05-10T12:20:49;1.20;;;1.10;;
32637;SDS011;19045;52.268;10.506;2023-05-10T12:23:18;0.68;;;0.68;;
32637;SDS011;19045;52.268;10.506;2023-05-10T12:25:46;1.10;;;0.52;;
32637;SDS011;19045;52.268;10.506;2023-05-10T12:28:14;2.25;;;0.77;;
32637;SDS011;19045;52.268;10.506;2023-05-10T12:30:45;1.85;;;0.88;;
32637;SDS011;19045;52.268;10.506;2023-05-10T12:33:12;3.33;;;0.60;;
32637;SDS011;19045;52.268;10.506;2023-05-10T12:35:45;1.70;;;0.82;;
32637;SDS011;19045;52.268;10.506;2023-05-10T12:40:55;1.52;;;1.08;;
32637;SDS011;19045;52.268;10.506;2023-05-10T12:43:24;2.40;;;0.90;;
32637;SDS011;19045;52.268;10.506;2023-05-10T12:45:50;2.67;;;1.05;;
32637;SDS011;19045;52.268;10.506;2023-05-10T12:48:17;3.88;;;0.90;;
32637;SDS011;19045;52.268;10.506;2023-05-10T12:50:44;3.83;;;0.90;;
32637;SDS011;19045;52.268;10.506;2023-05-10T12:53:11;3.60;;;1.27;;
32637;SDS011;19045;52.268;10.506;2023-05-10T12:55:38;1.65;;;1.10;;
32637;SDS011;19045;52.268;10.506;2023-05-10T12:58:05;4.10;;;1.20;;
32637;SDS011;19045;52.268;10.506;2023-05-10T13:00:33;2.45;;;1.10;;
32637;SDS011;19045;52.268;10.506;2023-05-10T13:03:00;2.42;;;1.20;;
32637;SDS011;19045;52.268;10.506;2023-05-10T13:05:26;3.67;;;1.23;;
32637;SDS011;19045;52.268;10.506;2023-05-10T13:07:53;1.23;;;0.70;;
32637;SDS011;19045;52.268;10.506;2023-05-10T13:10:20;5.70;;;0.80;;
32637;SDS011;19045;52.268;10.506;2023-05-10T13:12:48;3.40;;;1.00;;
32637;SDS011;19045;52.268;10.506;2023-05-10T13:15:15;1.50;;;0.90;;
32637;SDS011;19045;52.268;10.506;2023-05-10T13:17:43;4.15;;;0.93;;
32637;SDS011;19045;52.268;10.506;2023-05-10T13:20:10;1.70;;;0.80;;
32637;SDS011;19045;52.268;10.506;2023-05-10T13:22:37;3.22;;;1.00;;
32637;SDS011;19045;52.268;10.506;2023-05-10T13:25:04;4.35;;;1.30;;
32637;SDS011;19045;52.268;10.506;2023-05-10T13:27:31;1.90;;;0.80;;
32637;SDS011;19045;52.268;10.506;2023-05-10T13:29:58;1.83;;;1.02;;
32637;SDS011;19045;52.268;10.506;2023-05-10T13:32:24;1.85;;;0.73;;
32637;SDS011;19045;52.268;10.506;2023-05-10T13:34:53;1.60;;;0.70;;
32637;SDS011;19045;52.268;10.506;2023-05-10T13:37:19;2.92;;;1.00;;
32637;SDS011;19045;52.268;10.506;2023-05-10T13:39:46;2.42;;;1.30;;
32637;SDS011;19045;52.268;10.506;2023-05-10T13:42:13;1.40;;;1.00;;
32637;SDS011;19045;52.268;10.506;2023-05-10T13:44:39;1.40;;;1.13;;
32637;SDS011;19045;52.268;10.506;2023-05-10T13:47:06;1.27;;;0.90;;
32637;SDS011;19045;52.268;10.506;2023-05-10T13:49:32;7.03;;;1.88;;
32637;SDS011;19045;52.268;10.506;2023-05-10T13:52:01;2.92;;;1.08;;
32637;SDS011;19045;52.268;10.506;2023-05-10T13:54:31;4.53;;;1.48;;
32637;SDS011;19045;52.268;10.506;2023-05-10T13:56:58;1.45;;;1.15;;
32637;SDS011;19045;52.268;10.506;2023-05-10T13:59:25;3.05;;;1.00;;
32637;SDS011;19045;52.268;10.506;2023-05-10T14:01:51;1.58;;;1.08;;
32637;SDS011;19045;52.268;10.506;2023-05-10T14:04:18;3.22;;;1.33;;
32637;SDS011;19045;52.268;10.506;2023-05-10T14:06:45;1.75;;;1.00;;
32637;SDS011;19045;52.268;10.506;2023-05-10T14:09:13;1.90;;;0.75;;
32637;SDS011;19045;52.268;10.506;2023-05-10T14:11:40;2.35;;;1.00;;
32637;SDS011;19045;52.268;10.506;2023-05-10T14:14:08;3.83;;;1.10;;
32637;SDS011;19045;52.268;10.506;2023-05-10T14:16:34;3.00;;;1.05;;
32637;SDS011;19045;52.268;10.506;2023-05-10T14:19:01;4.28;;;1.23;;
32637;SDS011;19045;52.268;10.506;2023-05-10T14:21:28;1.77;;;0.98;;
32637;SDS011;19045;52.268;10.506;2023-05-10T14:23:55;1.52;;;1.27;;
32637;SDS011;19045;52.268;10.506;2023-05-10T14:26:23;1.20;;;1.10;;
32637;SDS011;19045;52.268;10.506;2023-05-10T14:28:51;2.70;;;1.38;;
32637;SDS011;19045;52.268;10.506;2023-05-10T14:31:17;3.10;;;1.20;;
32637;SDS011;19045;52.268;10.506;2023-05-10T14:33:45;2.13;;;1.10;;
32637;SDS011;19045;52.268;10.506;2023-05-10T14:36:12;1.38;;;1.05;;
32637;SDS011;19045;52.268;10.506;2023-05-10T14:38:38;1.17;;;0.93;;
32637;SDS011;19045;52.268;10.506;2023-05-10T14:41:06;1.63;;;1.05;;
32637;SDS011;19045;52.268;10.506;2023-05-10T14:43:34;2.78;;;1.30;;